createdAt,value
2018-04-16T00:01:54.484Z,41.83
2018-04-16T00:04:26.992Z,41.97
2018-04-16T00:06:59.520Z,30.77
2018-04-16T00:09:32.031Z,27.83
2018-04-16T00:12:04.569Z,30.30
2018-04-16T00:14:37.132Z,56.53
2018-04-16T00:17:09.670Z,104.37
2018-04-16T00:19:42.178Z,30.87
2018-04-16T00:22:14.701Z,27.20
2018-04-16T00:24:47.229Z,32.13
2018-04-16T00:27:19.762Z,98.23
2018-04-16T00:29:52.280Z,95.43
2018-04-16T00:32:30.567Z,83.07
2018-04-16T00:35:08.628Z,62.47
2018-04-16T00:37:46.771Z,32.63
2018-04-16T00:40:24.784Z,63.70
2018-04-16T00:43:02.949Z,30.53
2018-04-16T00:45:41.072Z,30.23
2018-04-16T00:48:19.131Z,43.03
2018-04-16T00:50:57.267Z,55.97
2018-04-16T00:53:47.343Z,29.80
2018-04-16T00:56:25.612Z,51.67
2018-04-16T00:59:03.663Z,91.83
2018-04-16T01:01:41.830Z,79.07
2018-04-16T01:04:19.979Z,37.20
2018-04-16T01:06:58.067Z,23.07
2018-04-16T01:09:36.093Z,29.30
2018-04-16T01:12:14.185Z,33.57
2018-04-16T01:14:52.336Z,32.83
2018-04-16T01:17:30.578Z,49.43
2018-04-16T01:20:08.672Z,34.17
2018-04-16T01:22:46.752Z,46.53
2018-04-16T01:25:24.824Z,33.47
2018-04-16T01:28:03.076Z,27.03
2018-04-16T01:30:41.159Z,24.57
2018-04-16T01:33:19.450Z,48.90
2018-04-16T01:35:57.631Z,76.00
2018-04-16T01:38:35.695Z,29.27
2018-04-16T01:41:13.912Z,27.67
2018-04-16T01:43:51.972Z,29.63
2018-04-16T01:46:30.097Z,31.17
2018-04-16T01:49:08.198Z,33.07
2018-04-16T01:51:46.385Z,24.70
2018-04-16T01:57:28.563Z,33.57
2018-04-16T02:00:06.595Z,33.23
2018-04-16T02:02:44.842Z,37.13
2018-04-16T02:05:23.091Z,89.90
2018-04-16T02:08:01.195Z,105.50
2018-04-16T02:10:39.386Z,121.00
2018-04-16T02:13:17.512Z,124.03
2018-04-16T02:15:55.621Z,41.10
2018-04-16T02:18:33.845Z,35.07
2018-04-16T02:21:12.108Z,37.20
2018-04-16T02:23:50.268Z,93.50
2018-04-16T02:26:28.412Z,111.40
2018-04-16T02:29:06.535Z,45.47
2018-04-16T02:31:44.778Z,49.43
2018-04-16T02:34:22.873Z,44.63
2018-04-16T02:37:00.990Z,28.03
2018-04-16T02:39:39.053Z,24.80
2018-04-16T02:42:17.212Z,34.60
2018-04-16T02:44:55.444Z,40.97
2018-04-16T02:47:33.674Z,31.13
2018-04-16T02:50:11.995Z,57.27
2018-04-16T02:52:50.204Z,64.63
2018-04-16T02:55:28.395Z,34.63
2018-04-16T02:58:06.484Z,96.73
2018-04-16T03:00:44.630Z,93.30
2018-04-16T03:03:22.724Z,61.90
2018-04-16T03:06:00.760Z,45.00
2018-04-16T03:08:39.071Z,24.00
2018-04-16T03:11:17.245Z,32.90
2018-04-16T03:13:55.341Z,37.30
2018-04-16T03:16:33.406Z,37.67
2018-04-16T03:19:11.581Z,107.50
2018-04-16T03:24:53.897Z,33.93
2018-04-16T03:27:32.053Z,36.13
2018-04-16T03:30:10.195Z,58.40
2018-04-16T03:32:48.284Z,27.83
2018-04-16T03:35:26.375Z,27.80
2018-04-16T03:38:04.569Z,42.43
2018-04-16T03:40:42.672Z,51.97
2018-04-16T03:43:20.755Z,103.27
2018-04-16T03:45:59.019Z,26.17
2018-04-16T03:48:37.289Z,38.17
2018-04-16T03:51:09.829Z,33.93
2018-04-16T03:53:48.064Z,32.60
2018-04-16T03:56:20.595Z,32.20
2018-04-16T03:58:53.115Z,39.00
2018-04-16T04:01:25.738Z,29.83
2018-04-16T04:03:58.232Z,28.17
2018-04-16T04:06:30.753Z,30.73
2018-04-16T04:09:03.305Z,31.87
2018-04-16T04:11:35.864Z,31.97
2018-04-16T04:14:08.455Z,30.17
2018-04-16T04:16:40.993Z,29.80
2018-04-16T04:19:13.509Z,39.30
2018-04-16T04:21:46.119Z,35.93
2018-04-16T04:24:30.459Z,27.23
2018-04-16T04:27:14.909Z,30.90
2018-04-16T04:29:59.436Z,36.20
2018-04-16T04:32:31.964Z,28.17
2018-04-16T04:35:04.589Z,53.13
2018-04-16T04:37:37.123Z,74.40
2018-04-16T04:40:09.623Z,60.20
2018-04-16T04:42:42.159Z,74.90
2018-04-16T04:45:14.730Z,25.47
2018-04-16T04:47:47.315Z,36.83
2018-04-16T04:50:19.816Z,22.90
2018-04-16T04:52:52.338Z,26.93
2018-04-16T04:55:24.856Z,25.27
2018-04-16T04:57:57.381Z,26.47
2018-04-16T05:00:29.886Z,39.17
2018-04-16T05:03:02.407Z,27.73
2018-04-16T05:05:34.924Z,25.67
2018-04-16T05:08:07.448Z,20.87
2018-04-16T05:10:40.061Z,26.67
2018-04-16T05:13:12.592Z,25.20
2018-04-16T05:15:45.142Z,24.90
2018-04-16T05:18:17.727Z,24.67
2018-04-16T05:20:50.263Z,49.20
2018-04-16T05:23:22.792Z,21.63
2018-04-16T05:25:55.377Z,26.17
2018-04-16T05:28:27.915Z,29.53
2018-04-16T05:31:00.423Z,36.07
2018-04-16T05:33:33.035Z,45.23
2018-04-16T05:36:05.546Z,47.87
2018-04-16T05:38:38.068Z,47.43
2018-04-16T05:41:10.566Z,32.77
2018-04-16T05:43:43.101Z,41.83
2018-04-16T05:46:15.604Z,42.07
2018-04-16T05:48:48.123Z,44.07
2018-04-16T05:51:20.741Z,48.27
2018-04-16T05:53:53.267Z,43.17
2018-04-16T05:56:25.817Z,30.77
2018-04-16T05:58:58.387Z,26.57
2018-04-16T06:01:30.889Z,38.93
2018-04-16T06:04:03.463Z,31.80
2018-04-16T06:06:35.965Z,32.80
2018-04-16T06:09:08.532Z,53.30
2018-04-16T06:11:41.033Z,33.67
2018-04-16T06:14:13.601Z,41.10
2018-04-16T06:16:46.111Z,48.13
2018-04-16T06:19:18.644Z,53.40
2018-04-16T06:21:51.153Z,57.43
2018-04-16T06:24:23.747Z,36.63
2018-04-16T06:26:56.404Z,37.13
2018-04-16T06:29:29.019Z,31.73
2018-04-16T06:32:01.526Z,27.83
2018-04-16T06:34:34.055Z,37.30
2018-04-16T06:37:06.560Z,28.37
2018-04-16T06:39:39.083Z,29.87
2018-04-16T06:42:11.654Z,30.27
2018-04-16T06:44:44.229Z,31.37
2018-04-16T06:47:16.808Z,25.70
2018-04-16T06:49:49.358Z,28.65
2018-04-16T06:52:22.090Z,33.15
2018-04-16T06:54:54.811Z,38.65
2018-04-16T06:57:27.326Z,29.17
2018-04-16T06:59:59.956Z,41.53
2018-04-16T07:02:32.477Z,29.08
2018-04-16T07:05:05.128Z,34.70
2018-04-16T07:07:37.711Z,33.65
2018-04-16T07:10:10.307Z,30.35
2018-04-16T07:12:42.871Z,32.07
2018-04-16T07:15:15.393Z,31.92
2018-04-16T07:17:47.910Z,30.85
2018-04-16T07:20:20.440Z,32.15
2018-04-16T07:22:52.960Z,33.08
2018-04-16T07:25:25.595Z,42.38
2018-04-16T07:27:58.097Z,33.28
2018-04-16T07:30:30.615Z,34.53
2018-04-16T07:33:03.127Z,36.38
2018-04-16T07:35:35.657Z,33.45
2018-04-16T07:38:08.235Z,40.20
2018-04-16T07:40:40.758Z,38.45
2018-04-16T07:43:13.261Z,42.88
2018-04-16T07:45:45.785Z,33.08
2018-04-16T07:48:18.375Z,36.05
2018-04-16T07:50:50.902Z,35.45
2018-04-16T07:53:23.436Z,41.22
2018-04-16T07:55:55.963Z,42.50
2018-04-16T07:58:28.503Z,37.22
2018-04-16T08:01:01.096Z,37.78
2018-04-16T08:03:33.594Z,36.90
2018-04-16T08:06:06.126Z,35.95
2018-04-16T08:08:38.632Z,36.70
2018-04-16T08:11:11.170Z,35.95
2018-04-16T08:13:43.695Z,44.63
2018-04-16T08:16:16.212Z,41.63
2018-04-16T08:18:48.733Z,45.65
2018-04-16T08:21:21.239Z,43.28
2018-04-16T08:23:53.765Z,40.75
2018-04-16T08:26:26.279Z,40.40
2018-04-16T08:28:58.819Z,40.05
2018-04-16T08:31:31.322Z,42.55
2018-04-16T08:34:03.839Z,40.22
2018-04-16T08:36:36.345Z,36.88
2018-04-16T08:39:08.864Z,38.70
2018-04-16T08:41:41.368Z,37.35
2018-04-16T08:44:13.887Z,40.08
2018-04-16T08:46:46.467Z,40.78
2018-04-16T08:49:19.019Z,38.25
2018-04-16T08:51:51.526Z,38.28
2018-04-16T08:54:24.048Z,38.47
2018-04-16T08:56:56.552Z,37.92
2018-04-16T08:59:29.148Z,38.38
2018-04-16T09:02:01.655Z,38.65
2018-04-16T09:04:34.176Z,39.67
2018-04-16T09:07:06.685Z,38.75
2018-04-16T09:09:39.203Z,39.35
2018-04-16T09:12:11.712Z,37.85
2018-04-16T09:14:44.262Z,38.08
2018-04-16T09:17:16.774Z,41.22
2018-04-16T09:19:49.300Z,41.08
2018-04-16T09:22:21.805Z,39.90
2018-04-16T09:24:54.398Z,38.88
2018-04-16T09:27:26.909Z,38.58
2018-04-16T09:29:59.468Z,39.15
2018-04-16T09:32:32.468Z,38.80
2018-04-16T09:35:05.053Z,36.88
2018-04-16T09:37:37.637Z,40.58
2018-04-16T09:40:10.164Z,40.88
2018-04-16T09:42:42.684Z,39.85
2018-04-16T09:45:15.305Z,40.55
2018-04-16T09:47:47.806Z,39.85
2018-04-16T09:50:20.361Z,39.28
2018-04-16T09:52:52.851Z,40.38
2018-04-16T09:55:25.377Z,39.53
2018-04-16T09:57:57.887Z,40.65
2018-04-16T10:00:30.526Z,38.53
2018-04-16T10:03:03.023Z,37.88
2018-04-16T10:05:35.555Z,38.47
2018-04-16T10:08:08.059Z,37.60
2018-04-16T10:10:40.584Z,36.85
2018-04-16T10:13:13.095Z,40.65
2018-04-16T10:15:45.732Z,40.05
2018-04-16T10:18:18.317Z,38.42
2018-04-16T10:20:50.852Z,36.08
2018-04-16T10:23:23.354Z,34.78
2018-04-16T10:25:55.879Z,34.60
2018-04-16T10:28:28.380Z,36.67
2018-04-16T10:31:00.912Z,35.92
2018-04-16T10:33:33.416Z,33.08
2018-04-16T10:36:06.011Z,34.15
2018-04-16T10:38:38.518Z,34.58
2018-04-16T10:41:11.040Z,33.83
2018-04-16T10:43:43.562Z,33.60
2018-04-16T10:46:16.091Z,31.87
2018-04-16T10:48:48.596Z,30.23
2018-04-16T10:51:21.232Z,31.95
2018-04-16T10:53:53.727Z,29.25
2018-04-16T10:56:26.331Z,26.45
2018-04-16T10:58:58.872Z,26.27
2018-04-16T11:01:31.407Z,26.10
2018-04-16T11:04:03.952Z,27.08
2018-04-16T11:06:36.480Z,28.25
2018-04-16T11:09:08.979Z,27.20
2018-04-16T11:11:41.549Z,27.33
2018-04-16T11:14:14.056Z,27.55
2018-04-16T11:16:46.689Z,26.58
2018-04-16T11:19:19.270Z,25.98
2018-04-16T11:21:51.799Z,25.23
2018-04-16T11:24:24.335Z,24.17
2018-04-16T11:26:56.867Z,25.33
2018-04-16T11:29:29.379Z,25.58
2018-04-16T11:32:01.899Z,24.10
2018-04-16T11:34:34.407Z,25.85
2018-04-16T11:37:06.941Z,25.17
2018-04-16T11:39:39.539Z,24.45
2018-04-16T11:42:12.060Z,23.65
2018-04-16T11:44:44.571Z,23.90
2018-04-16T11:47:17.155Z,23.58
2018-04-16T11:49:49.657Z,24.35
2018-04-16T11:52:22.180Z,23.58
2018-04-16T11:54:54.675Z,23.40
2018-04-16T11:57:27.211Z,21.60
2018-04-16T11:59:59.745Z,22.23
2018-04-16T12:02:32.271Z,21.98
2018-04-16T12:05:04.777Z,23.05
2018-04-16T12:07:37.360Z,21.65
2018-04-16T12:10:09.860Z,20.92
2018-04-16T12:12:42.384Z,19.65
2018-04-16T12:15:14.891Z,19.75
2018-04-16T12:17:47.667Z,19.08
2018-04-16T12:20:20.291Z,20.17
2018-04-16T12:22:52.817Z,20.15
2018-04-16T12:25:25.321Z,20.48
2018-04-16T12:27:57.934Z,20.67
2018-04-16T12:30:30.436Z,19.45
2018-04-16T12:33:03.020Z,20.52
2018-04-16T12:35:35.491Z,20.50
2018-04-16T12:38:08.025Z,19.17
2018-04-16T12:40:40.568Z,18.08
2018-04-16T12:43:13.142Z,18.45
2018-04-16T12:45:45.727Z,12.60
2018-04-16T12:48:18.315Z,10.60
2018-04-16T12:50:50.851Z,10.35
2018-04-16T12:53:23.363Z,9.70
2018-04-16T12:55:55.884Z,9.35
2018-04-16T12:58:28.376Z,7.78
2018-04-16T13:01:00.944Z,9.32
2018-04-16T13:03:33.519Z,12.88
2018-04-16T13:06:06.049Z,10.02
2018-04-16T13:08:38.557Z,10.63
2018-04-16T13:11:11.089Z,10.70
2018-04-16T13:13:43.665Z,9.45
2018-04-16T13:16:16.188Z,8.40
2018-04-16T13:18:48.689Z,8.95
2018-04-16T13:21:21.203Z,9.40
2018-04-16T13:23:53.808Z,9.43
2018-04-16T13:26:26.396Z,10.02
2018-04-16T13:28:58.981Z,8.93
2018-04-16T13:31:31.583Z,8.73
2018-04-16T13:34:04.151Z,8.68
2018-04-16T13:36:36.737Z,7.28
2018-04-16T13:39:09.232Z,6.68
2018-04-16T13:41:41.736Z,7.40
2018-04-16T13:44:14.227Z,7.62
2018-04-16T13:46:46.739Z,7.03
2018-04-16T13:49:19.270Z,7.22
2018-04-16T13:51:51.793Z,5.43
2018-04-16T13:54:24.287Z,4.62
2018-04-16T13:56:56.805Z,4.93
2018-04-16T13:59:29.312Z,4.60
2018-04-16T14:02:01.837Z,4.32
2018-04-16T14:04:34.341Z,3.90
2018-04-16T14:07:06.869Z,4.12
2018-04-16T14:09:39.364Z,4.03
2018-04-16T14:12:11.886Z,4.22
2018-04-16T14:14:44.392Z,4.10
2018-04-16T14:17:17.000Z,3.75
2018-04-16T14:19:49.515Z,3.35
2018-04-16T14:22:22.028Z,3.00
2018-04-16T14:24:54.528Z,3.58
2018-04-16T14:27:27.045Z,3.90
2018-04-16T14:29:59.535Z,3.67
2018-04-16T14:32:32.106Z,3.78
2018-04-16T14:35:04.601Z,4.32
2018-04-16T14:37:37.172Z,4.03
2018-04-16T14:40:09.659Z,3.95
2018-04-16T14:42:42.179Z,4.78
2018-04-16T14:45:14.730Z,5.25
2018-04-16T14:47:47.380Z,5.30
2018-04-16T14:50:19.877Z,8.45
2018-04-16T14:52:52.404Z,12.98
2018-04-16T14:55:24.915Z,16.55
2018-04-16T14:57:57.457Z,17.55
2018-04-16T15:00:29.977Z,18.00
2018-04-16T15:03:02.499Z,13.52
2018-04-16T15:05:35.020Z,14.30
2018-04-16T15:08:07.566Z,21.87
2018-04-16T15:10:40.094Z,25.25
2018-04-16T15:13:12.622Z,43.55
2018-04-16T15:15:45.123Z,57.80
2018-04-16T15:18:17.642Z,45.65
2018-04-16T15:20:50.212Z,32.13
2018-04-16T15:23:22.751Z,86.12
2018-04-16T15:25:55.277Z,91.82
2018-04-16T15:28:27.964Z,67.35
2018-04-16T15:31:00.487Z,53.85
2018-04-16T15:33:33.055Z,90.20
2018-04-16T15:36:05.564Z,78.57
2018-04-16T15:38:38.120Z,100.28
2018-04-16T15:41:10.635Z,61.00
2018-04-16T15:43:43.168Z,91.20
2018-04-16T15:46:15.669Z,40.40
2018-04-16T15:48:48.192Z,48.00
2018-04-16T15:51:20.693Z,32.30
2018-04-16T15:53:53.220Z,32.55
2018-04-16T15:56:25.739Z,44.03
2018-04-16T15:58:58.265Z,35.92
2018-04-16T16:01:30.883Z,46.67
2018-04-16T16:04:03.419Z,29.15
2018-04-16T16:06:36.170Z,35.53
2018-04-16T16:09:08.794Z,26.25
2018-04-16T16:11:41.301Z,29.15
2018-04-16T16:14:13.831Z,36.92
2018-04-16T16:16:46.355Z,36.92
2018-04-16T16:19:18.898Z,29.98
2018-04-16T16:21:51.420Z,29.65
2018-04-16T16:24:23.918Z,32.38
2018-04-16T16:26:56.535Z,34.30
2018-04-16T16:29:29.123Z,41.65
2018-04-16T16:32:01.652Z,32.58
2018-04-16T16:34:34.195Z,32.80
2018-04-16T16:37:06.779Z,34.75
2018-04-16T16:39:39.288Z,31.40
2018-04-16T16:42:11.815Z,23.65
2018-04-16T16:44:44.313Z,26.65
2018-04-16T16:47:17.091Z,32.75
2018-04-16T16:49:49.600Z,27.98
2018-04-16T16:52:22.219Z,26.83
2018-04-16T16:54:54.723Z,25.15
2018-04-16T16:57:27.275Z,30.77
2018-04-16T16:59:59.876Z,28.52
2018-04-16T17:02:32.461Z,29.98
2018-04-16T17:05:04.931Z,19.85
2018-04-16T17:07:37.511Z,27.25
2018-04-16T17:10:10.015Z,21.35
2018-04-16T17:12:42.588Z,20.48
2018-04-16T17:15:15.167Z,17.30
2018-04-16T17:17:48.027Z,20.58
2018-04-16T17:20:20.537Z,18.00
2018-04-16T17:22:53.139Z,17.73
2018-04-16T17:25:25.651Z,21.15
2018-04-16T17:27:58.192Z,21.02
2018-04-16T17:30:30.695Z,24.33
2018-04-16T17:33:03.563Z,28.38
2018-04-16T17:35:36.177Z,28.92
2018-04-16T17:38:08.768Z,23.27
2018-04-16T17:40:41.320Z,23.90
2018-04-16T17:43:13.880Z,24.90
2018-04-16T17:45:46.383Z,29.90
2018-04-16T17:48:19.041Z,20.98
2018-04-16T17:50:51.611Z,21.33
2018-04-16T17:53:24.308Z,42.53
2018-04-16T17:55:56.806Z,46.10
2018-04-16T17:58:29.531Z,20.67
2018-04-16T18:01:02.030Z,20.77
2018-04-16T18:03:34.691Z,37.38
2018-04-16T18:06:07.198Z,19.20
2018-04-16T18:08:40.120Z,17.02
2018-04-16T18:11:12.625Z,23.10
2018-04-16T18:13:45.147Z,35.78
2018-04-16T18:16:17.724Z,29.15
2018-04-16T18:18:50.259Z,37.08
2018-04-16T18:21:22.831Z,32.28
2018-04-16T18:23:55.375Z,31.65
2018-04-16T18:26:27.902Z,23.25
2018-04-16T18:29:00.436Z,28.40
2018-04-16T18:31:32.965Z,18.00
2018-04-16T18:34:05.488Z,19.17
2018-04-16T18:36:38.010Z,23.55
2018-04-16T18:39:12.574Z,30.10
2018-04-16T18:41:45.100Z,38.20
2018-04-16T18:44:17.748Z,22.62
2018-04-16T18:46:50.697Z,27.77
2018-04-16T18:49:23.224Z,34.22
2018-04-16T18:51:55.807Z,34.55
2018-04-16T18:54:28.331Z,41.80
2018-04-16T18:57:00.832Z,41.30
2018-04-16T18:59:33.403Z,31.15
2018-04-16T19:02:05.923Z,33.22
2018-04-16T19:04:38.536Z,28.85
2018-04-16T19:07:11.039Z,34.22
2018-04-16T19:09:46.264Z,27.05
2018-04-16T19:12:24.444Z,23.95
2018-04-16T19:14:56.974Z,24.17
2018-04-16T19:17:29.603Z,18.87
2018-04-16T19:20:02.267Z,16.45
2018-04-16T19:22:34.849Z,19.35
2018-04-16T19:25:07.427Z,16.98
2018-04-16T19:27:45.560Z,16.40
2018-04-16T19:30:18.096Z,19.67
2018-04-16T19:32:56.362Z,18.40
2018-04-16T19:35:28.867Z,20.23
2018-04-16T19:38:01.425Z,19.77
2018-04-16T19:40:34.008Z,17.25
2018-04-16T19:43:06.573Z,18.73
2018-04-16T19:45:39.088Z,16.25
2018-04-16T19:48:11.663Z,15.48
2018-04-16T19:50:44.168Z,15.98
2018-04-16T19:53:16.735Z,14.23
2018-04-16T19:55:54.893Z,17.23
2018-04-16T19:58:27.417Z,16.73
2018-04-16T20:00:59.960Z,16.60
2018-04-16T20:03:38.375Z,14.30
2018-04-16T20:06:10.956Z,15.48
2018-04-16T20:08:43.488Z,14.98
2018-04-16T20:11:16.019Z,14.85
2018-04-16T20:13:48.549Z,15.25
2018-04-16T20:16:21.118Z,14.25
2018-04-16T20:18:53.661Z,15.35
2018-04-16T20:21:26.369Z,14.50
2018-04-16T20:23:58.915Z,13.43
2018-04-16T20:26:31.437Z,14.20
2018-04-16T20:29:03.962Z,14.10
2018-04-16T20:31:36.482Z,14.27
2018-04-16T20:34:09.091Z,13.93
2018-04-16T20:36:41.608Z,12.00
2018-04-16T20:39:14.297Z,13.73
2018-04-16T20:41:48.210Z,12.88
2018-04-16T20:44:20.761Z,13.57
2018-04-16T20:46:53.309Z,12.27
2018-04-16T20:49:25.884Z,13.07
2018-04-16T20:51:58.391Z,12.07
2018-04-16T20:54:30.940Z,13.55
2018-04-16T20:57:03.448Z,15.15
2018-04-16T20:59:36.031Z,12.50
2018-04-16T21:02:08.849Z,11.70
2018-04-16T21:04:41.383Z,12.30
2018-04-16T21:07:13.886Z,11.43
2018-04-16T21:09:46.416Z,13.95
2018-04-16T21:12:19.038Z,13.85
2018-04-16T21:14:51.568Z,15.07
2018-04-16T21:17:24.091Z,12.65
2018-04-16T21:19:56.618Z,12.68
2018-04-16T21:22:29.140Z,12.10
2018-04-16T21:25:01.664Z,13.48
2018-04-16T21:27:34.233Z,11.45
2018-04-16T21:30:06.765Z,13.47
2018-04-16T21:32:39.327Z,11.88
2018-04-16T21:35:11.899Z,10.95
2018-04-16T21:37:44.408Z,11.88
2018-04-16T21:40:16.966Z,10.05
2018-04-16T21:42:49.470Z,8.35
2018-04-16T21:45:21.997Z,9.80
2018-04-16T21:47:54.524Z,8.55
2018-04-16T21:50:27.116Z,9.15
2018-04-16T21:52:59.621Z,8.55
2018-04-16T21:55:32.175Z,8.88
2018-04-16T21:58:04.684Z,10.00
2018-04-16T22:00:37.256Z,10.38
2018-04-16T22:03:09.814Z,7.30
2018-04-16T22:05:42.325Z,8.02
2018-04-16T22:08:14.823Z,6.85
2018-04-16T22:10:47.383Z,7.07
2018-04-16T22:13:19.875Z,6.65
2018-04-16T22:15:52.441Z,6.57
2018-04-16T22:18:24.946Z,5.55
2018-04-16T22:20:57.459Z,6.60
2018-04-16T22:23:29.967Z,4.72
2018-04-16T22:26:02.478Z,6.30
2018-04-16T22:28:34.970Z,5.90
2018-04-16T22:31:07.504Z,5.50
2018-04-16T22:33:40.049Z,5.82
2018-04-16T22:36:12.649Z,5.60
2018-04-16T22:38:45.145Z,5.22
2018-04-16T22:41:17.671Z,4.85
2018-04-16T22:43:50.198Z,5.00
2018-04-16T22:46:22.767Z,5.30
2018-04-16T22:48:55.255Z,5.72
2018-04-16T22:51:27.775Z,5.85
2018-04-16T22:54:00.430Z,4.65
2018-04-16T22:56:33.032Z,5.30
2018-04-16T22:59:05.606Z,6.90
2018-04-16T23:01:38.122Z,5.03
2018-04-16T23:04:10.619Z,6.23
2018-04-16T23:06:43.153Z,6.30
2018-04-16T23:09:15.654Z,5.60
2018-04-16T23:11:48.172Z,5.70
2018-04-16T23:14:20.669Z,4.73
2018-04-16T23:16:53.193Z,4.57
2018-04-16T23:19:25.695Z,5.97
2018-04-16T23:21:58.282Z,4.47
2018-04-16T23:24:30.858Z,5.97
2018-04-16T23:27:03.619Z,4.83
2018-04-16T23:29:36.120Z,4.77
2018-04-16T23:32:08.690Z,4.33
2018-04-16T23:34:41.193Z,5.13
2018-04-16T23:37:13.712Z,5.13
2018-04-16T23:39:46.216Z,8.13
2018-04-16T23:42:18.755Z,5.70
2018-04-16T23:44:51.251Z,4.90
2018-04-16T23:47:23.763Z,4.07
2018-04-16T23:49:56.255Z,3.90
2018-04-16T23:52:28.776Z,3.60
2018-04-16T23:55:01.396Z,4.80
2018-04-16T23:57:33.971Z,6.07
